sensor_id;sensor_type;location;lat;lon;timestamp;pressure;altitude;pressure_sealevel;temperature;humidity
60319;BME280;46163;52.306;5.634;2023-02-01T00:01:12;101720.28;;;15.61;53.50
60319;BME280;46163;52.306;5.634;2023-02-01T00:03:37;101712.44;;;15.59;53.46
60319;BME280;46163;52.306;5.634;2023-02-01T00:06:03;101721.53;;;15.58;53.38
60319;BME280;46163;52.306;5.634;2023-02-01T00:08:28;101728.97;;;15.56;53.41
60319;BME280;46163;52.306;5.634;2023-02-01T00:10:59;101714.91;;;15.54;53.37
60319;BME280;46163;52.306;5.634;2023-02-01T00:13:28;101717.81;;;15.52;53.42
60319;BME280;46163;52.306;5.634;2023-02-01T00:15:53;101722.34;;;15.52;53.42
60319;BME280;46163;52.306;5.634;2023-02-01T00:18:19;101704.63;;;15.44;53.42
60319;BME280;46163;52.306;5.634;2023-02-01T00:20:47;101719.06;;;15.50;53.37
60319;BME280;46163;52.306;5.634;2023-02-01T00:23:13;101721.16;;;15.48;53.37
60319;BME280;46163;52.306;5.634;2023-02-01T00:25:38;101717.81;;;15.46;53.44
60319;BME280;46163;52.306;5.634;2023-02-01T00:28:05;101718.88;;;15.45;53.51
60319;BME280;46163;52.306;5.634;2023-02-01T00:30:30;101714.53;;;15.44;53.55
60319;BME280;46163;52.306;5.634;2023-02-01T00:32:56;101713.13;;;15.41;53.45
60319;BME280;46163;52.306;5.634;2023-02-01T00:35:21;101714.16;;;15.40;53.51
60319;BME280;46163;52.306;5.634;2023-02-01T00:37:47;101712.72;;;15.38;53.44
60319;BME280;46163;52.306;5.634;2023-02-01T00:40:12;101706.50;;;15.37;53.44
60319;BME280;46163;52.306;5.634;2023-02-01T00:42:38;101705.69;;;15.37;53.35
60319;BME280;46163;52.306;5.634;2023-02-01T00:45:04;101712.31;;;15.34;53.49
60319;BME280;46163;52.306;5.634;2023-02-01T00:47:29;101716.03;;;15.33;53.28
60319;BME280;46163;52.306;5.634;2023-02-01T00:49:55;101712.53;;;15.33;53.35
60319;BME280;46163;52.306;5.634;2023-02-01T00:52:21;101714.81;;;15.29;53.40
60319;BME280;46163;52.306;5.634;2023-02-01T00:54:46;101710.66;;;15.26;53.45
60319;BME280;46163;52.306;5.634;2023-02-01T00:57:14;101708.81;;;15.27;53.44
60319;BME280;46163;52.306;5.634;2023-02-01T00:59:39;101713.34;;;15.26;53.38
60319;BME280;46163;52.306;5.634;2023-02-01T01:02:05;101704.69;;;15.24;53.47
60319;BME280;46163;52.306;5.634;2023-02-01T01:04:31;101708.41;;;15.23;53.44
60319;BME280;46163;52.306;5.634;2023-02-01T01:06:57;101693.16;;;15.17;53.44
60319;BME280;46163;52.306;5.634;2023-02-01T01:09:22;101680.19;;;15.21;53.41
60319;BME280;46163;52.306;5.634;2023-02-01T01:11:48;101672.31;;;15.19;53.46
60319;BME280;46163;52.306;5.634;2023-02-01T01:14:14;101663.44;;;15.19;53.45
60319;BME280;46163;52.306;5.634;2023-02-01T01:16:39;101679.75;;;15.17;53.46
60319;BME280;46163;52.306;5.634;2023-02-01T01:19:05;101683.47;;;15.16;53.42
60319;BME280;46163;52.306;5.634;2023-02-01T01:21:33;101680.78;;;15.16;53.17
60319;BME280;46163;52.306;5.634;2023-02-01T01:23:58;101676.47;;;15.15;53.37
60319;BME280;46163;52.306;5.634;2023-02-01T01:26:26;101659.34;;;15.10;53.16
60319;BME280;46163;52.306;5.634;2023-02-01T01:28:54;101676.91;;;15.12;53.29
60319;BME280;46163;52.306;5.634;2023-02-01T01:31:20;101673.41;;;15.12;53.38
60319;BME280;46163;52.306;5.634;2023-02-01T01:33:51;101675.44;;;15.10;53.46
60319;BME280;46163;52.306;5.634;2023-02-01T01:36:16;101659.34;;;15.10;53.32
60319;BME280;46163;52.306;5.634;2023-02-01T01:38:42;101670.06;;;15.10;53.19
60319;BME280;46163;52.306;5.634;2023-02-01T01:41:13;101672.38;;;15.06;53.39
60319;BME280;46163;52.306;5.634;2023-02-01T01:44:01;101679.59;;;15.06;53.43
60319;BME280;46163;52.306;5.634;2023-02-01T01:46:28;101680.63;;;15.05;53.22
60319;BME280;46163;52.306;5.634;2023-02-01T01:51:25;101671.13;;;15.02;53.38
60319;BME280;46163;52.306;5.634;2023-02-01T01:54:01;101667.84;;;15.00;53.43
60319;BME280;46163;52.306;5.634;2023-02-01T01:56:30;101658.16;;;14.99;53.43
60319;BME280;46163;52.306;5.634;2023-02-01T01:58:56;101663.50;;;14.99;53.26
60319;BME280;46163;52.306;5.634;2023-02-01T02:01:22;101657.34;;;14.98;53.25
60319;BME280;46163;52.306;5.634;2023-02-01T02:03:47;101659.19;;;14.98;53.25
60319;BME280;46163;52.306;5.634;2023-02-01T02:06:27;101649.50;;;14.97;53.22
60319;BME280;46163;52.306;5.634;2023-02-01T02:08:55;101654.25;;;14.95;53.18
60319;BME280;46163;52.306;5.634;2023-02-01T02:11:21;101639.19;;;14.94;53.18
60319;BME280;46163;52.306;5.634;2023-02-01T02:13:49;101642.91;;;14.93;53.23
60319;BME280;46163;52.306;5.634;2023-02-01T02:27:12;101622.31;;;14.87;53.24
60319;BME280;46163;52.306;5.634;2023-02-01T02:38:16;101618.19;;;14.84;53.18
60319;BME280;46163;52.306;5.634;2023-02-01T02:43:22;101592.84;;;14.74;53.06
60319;BME280;46163;52.306;5.634;2023-02-01T02:51:37;101588.31;;;14.81;52.85
60319;BME280;46163;52.306;5.634;2023-02-01T02:54:31;101589.34;;;14.80;53.14
60319;BME280;46163;52.306;5.634;2023-02-01T02:57:20;101599.25;;;14.79;53.08
60319;BME280;46163;52.306;5.634;2023-02-01T03:00:10;101581.53;;;14.78;53.03
60319;BME280;46163;52.306;5.634;2023-02-01T03:02:55;101587.91;;;14.77;53.21
60319;BME280;46163;52.306;5.634;2023-02-01T03:05:45;101593.28;;;14.77;53.05
60319;BME280;46163;52.306;5.634;2023-02-01T03:13:12;101594.50;;;14.75;52.95
60319;BME280;46163;52.306;5.634;2023-02-01T03:16:22;101594.50;;;14.75;53.09
60319;BME280;46163;52.306;5.634;2023-02-01T03:18:39;101600.91;;;14.74;53.06
60319;BME280;46163;52.306;5.634;2023-02-01T03:21:11;101598.22;;;14.74;52.86
60319;BME280;46163;52.306;5.634;2023-02-01T03:23:38;101595.75;;;14.72;53.17
60319;BME280;46163;52.306;5.634;2023-02-01T03:26:07;101594.09;;;14.71;52.83
60319;BME280;46163;52.306;5.634;2023-02-01T03:28:35;101591.44;;;14.71;52.82
60319;BME280;46163;52.306;5.634;2023-02-01T03:31:02;101589.78;;;14.70;53.13
60319;BME280;46163;52.306;5.634;2023-02-01T03:33:29;101580.09;;;14.69;53.09
60319;BME280;46163;52.306;5.634;2023-02-01T03:36:18;101590.81;;;14.69;53.01
60319;BME280;46163;52.306;5.634;2023-02-01T03:38:55;101592.88;;;14.67;53.15
60319;BME280;46163;52.306;5.634;2023-02-01T03:44:03;101584.22;;;14.65;53.08
60319;BME280;46163;52.306;5.634;2023-02-01T03:46:37;101575.38;;;14.58;53.11
60319;BME280;46163;52.306;5.634;2023-02-01T03:49:10;101589.56;;;14.65;52.99
60319;BME280;46163;52.306;5.634;2023-02-01T03:51:38;101590.81;;;14.62;52.79
60319;BME280;46163;52.306;5.634;2023-02-01T03:54:07;101594.31;;;14.63;52.80
60319;BME280;46163;52.306;5.634;2023-02-01T03:56:37;101591.03;;;14.61;52.88
60319;BME280;46163;52.306;5.634;2023-02-01T03:59:04;101591.22;;;14.59;52.73
60319;BME280;46163;52.306;5.634;2023-02-01T04:01:30;101590.22;;;14.60;53.01
60319;BME280;46163;52.306;5.634;2023-02-01T04:03:59;101594.75;;;14.60;52.71
60319;BME280;46163;52.306;5.634;2023-02-01T04:06:25;101602.16;;;14.58;52.98
60319;BME280;46163;52.306;5.634;2023-02-01T04:08:51;101590.63;;;14.57;53.17
60319;BME280;46163;52.306;5.634;2023-02-01T04:11:17;101602.56;;;14.55;53.05
60319;BME280;46163;52.306;5.634;2023-02-01T04:13:43;101592.69;;;14.55;52.81
60319;BME280;46163;52.306;5.634;2023-02-01T04:16:09;101587.72;;;14.59;52.90
60319;BME280;46163;52.306;5.634;2023-02-01T04:18:35;101588.16;;;14.62;52.61
60319;BME280;46163;52.306;5.634;2023-02-01T04:21:01;101590.00;;;14.68;52.67
60319;BME280;46163;52.306;5.634;2023-02-01T04:23:28;101591.00;;;14.74;52.38
60319;BME280;46163;52.306;5.634;2023-02-01T04:25:59;101576.56;;;14.82;52.48
60319;BME280;46163;52.306;5.634;2023-02-01T04:28:26;101580.66;;;14.91;52.25
60319;BME280;46163;52.306;5.634;2023-02-01T04:30:52;101594.44;;;15.01;52.04
60319;BME280;46163;52.306;5.634;2023-02-01T04:33:17;101607.59;;;15.09;51.96
60319;BME280;46163;52.306;5.634;2023-02-01T04:35:43;101610.88;;;15.18;51.74
60319;BME280;46163;52.306;5.634;2023-02-01T04:38:08;101602.19;;;15.29;51.55
60319;BME280;46163;52.306;5.634;2023-02-01T04:40:34;101590.78;;;15.40;51.35
60319;BME280;46163;52.306;5.634;2023-02-01T04:43:03;101593.22;;;15.48;51.12
60319;BME280;46163;52.306;5.634;2023-02-01T04:45:29;101589.00;;;15.59;51.01
60319;BME280;46163;52.306;5.634;2023-02-01T04:47:54;101589.38;;;15.69;50.68
60319;BME280;46163;52.306;5.634;2023-02-01T04:50:20;101601.50;;;15.78;50.67
60319;BME280;46163;52.306;5.634;2023-02-01T04:52:46;101589.47;;;15.88;50.41
60319;BME280;46163;52.306;5.634;2023-02-01T04:55:12;101605.09;;;15.97;50.28
60319;BME280;46163;52.306;5.634;2023-02-01T04:57:39;101598.63;;;16.05;50.03
60319;BME280;46163;52.306;5.634;2023-02-01T05:00:06;101595.69;;;16.13;49.64
60319;BME280;46163;52.306;5.634;2023-02-01T05:02:32;101599.97;;;16.21;49.75
60319;BME280;46163;52.306;5.634;2023-02-01T05:04:58;101585.44;;;16.28;49.56
60319;BME280;46163;52.306;5.634;2023-02-01T05:07:24;101578.16;;;16.35;49.26
60319;BME280;46163;52.306;5.634;2023-02-01T05:09:49;101566.72;;;16.40;49.13
60319;BME280;46163;52.306;5.634;2023-02-01T05:12:15;101573.91;;;16.46;49.09
60319;BME280;46163;52.306;5.634;2023-02-01T05:14:59;101566.03;;;16.51;49.08
60319;BME280;46163;52.306;5.634;2023-02-01T05:17:24;101573.41;;;16.56;48.93
60319;BME280;46163;52.306;5.634;2023-02-01T05:19:50;101578.94;;;16.61;48.77
60319;BME280;46163;52.306;5.634;2023-02-01T05:22:15;101571.00;;;16.66;48.75
60319;BME280;46163;52.306;5.634;2023-02-01T05:24:41;101579.50;;;16.70;48.56
60319;BME280;46163;52.306;5.634;2023-02-01T05:27:06;101582.78;;;16.72;48.70
60319;BME280;46163;52.306;5.634;2023-02-01T05:29:32;101568.47;;;16.78;48.51
60319;BME280;46163;52.306;5.634;2023-02-01T05:31:57;101580.16;;;16.83;48.51
60319;BME280;46163;52.306;5.634;2023-02-01T05:34:24;101574.34;;;16.86;48.41
60319;BME280;46163;52.306;5.634;2023-02-01T05:36:49;101581.75;;;16.91;48.21
60319;BME280;46163;52.306;5.634;2023-02-01T05:39:15;101578.38;;;16.95;48.23
60319;BME280;46163;52.306;5.634;2023-02-01T05:41:41;101593.59;;;17.02;48.29
60319;BME280;46163;52.306;5.634;2023-02-01T05:44:06;101577.63;;;17.07;48.12
60319;BME280;46163;52.306;5.634;2023-02-01T05:46:34;101580.25;;;17.13;47.95
60319;BME280;46163;52.306;5.634;2023-02-01T05:49:00;101580.59;;;17.17;47.77
60319;BME280;46163;52.306;5.634;2023-02-01T05:51:27;101566.25;;;17.23;47.79
60319;BME280;46163;52.306;5.634;2023-02-01T05:53:52;101580.66;;;17.29;47.73
60319;BME280;46163;52.306;5.634;2023-02-01T05:56:17;101586.41;;;17.32;47.66
60319;BME280;46163;52.306;5.634;2023-02-01T05:58:43;101575.78;;;17.37;47.76
60319;BME280;46163;52.306;5.634;2023-02-01T06:01:10;101574.88;;;17.43;47.54
60319;BME280;46163;52.306;5.634;2023-02-01T06:03:35;101574.19;;;17.48;47.50
60319;BME280;46163;52.306;5.634;2023-02-01T06:06:01;101577.00;;;17.53;47.25
60319;BME280;46163;52.306;5.634;2023-02-01T06:08:27;101581.72;;;17.58;47.20
60319;BME280;46163;52.306;5.634;2023-02-01T06:11:01;101578.56;;;17.61;47.06
60319;BME280;46163;52.306;5.634;2023-02-01T06:13:26;101592.16;;;17.66;46.76
60319;BME280;46163;52.306;5.634;2023-02-01T06:15:52;101588.81;;;17.70;47.05
60319;BME280;46163;52.306;5.634;2023-02-01T06:18:18;101591.06;;;17.73;47.20
60319;BME280;46163;52.306;5.634;2023-02-01T06:20:44;101590.81;;;17.75;46.92
60319;BME280;46163;52.306;5.634;2023-02-01T06:23:10;101581.09;;;17.74;46.82
60319;BME280;46163;52.306;5.634;2023-02-01T06:25:35;101585.44;;;17.75;46.96
60319;BME280;46163;52.306;5.634;2023-02-01T06:28:03;101593.03;;;17.78;46.93
60319;BME280;46163;52.306;5.634;2023-02-01T06:30:31;101594.09;;;17.77;47.02
60319;BME280;46163;52.306;5.634;2023-02-01T06:32:56;101598.00;;;17.81;47.20
60319;BME280;46163;52.306;5.634;2023-02-01T06:35:23;101580.16;;;17.80;47.24
60319;BME280;46163;52.306;5.634;2023-02-01T06:37:48;101599.00;;;17.80;47.35
60319;BME280;46163;52.306;5.634;2023-02-01T06:40:14;101594.69;;;17.79;47.59
60319;BME280;46163;52.306;5.634;2023-02-01T06:42:40;101596.31;;;17.80;47.59
60319;BME280;46163;52.306;5.634;2023-02-01T06:45:06;101601.69;;;17.80;47.43
60319;BME280;46163;52.306;5.634;2023-02-01T06:47:33;101593.03;;;17.78;47.60
60319;BME280;46163;52.306;5.634;2023-02-01T06:49:58;101598.19;;;17.79;47.62
60319;BME280;46163;52.306;5.634;2023-02-01T06:52:24;101591.97;;;17.79;47.88
60319;BME280;46163;52.306;5.634;2023-02-01T06:54:49;101592.59;;;17.81;47.77
60319;BME280;46163;52.306;5.634;2023-02-01T06:57:15;101608.28;;;17.84;47.88
60319;BME280;46163;52.306;5.634;2023-02-01T06:59:41;101598.34;;;17.85;47.76
60319;BME280;46163;52.306;5.634;2023-02-01T07:02:11;101595.63;;;17.85;47.71
60319;BME280;46163;52.306;5.634;2023-02-01T07:04:36;101604.88;;;17.89;47.46
60319;BME280;46163;52.306;5.634;2023-02-01T07:07:02;101606.09;;;17.93;47.36
60319;BME280;46163;52.306;5.634;2023-02-01T07:09:28;101604.78;;;17.95;47.45
60319;BME280;46163;52.306;5.634;2023-02-01T07:11:53;101600.22;;;17.96;47.64
60319;BME280;46163;52.306;5.634;2023-02-01T07:14:23;101616.28;;;18.02;48.29
60319;BME280;46163;52.306;5.634;2023-02-01T07:16:49;101607.28;;;18.08;48.27
60319;BME280;46163;52.306;5.634;2023-02-01T07:19:15;101612.56;;;18.15;48.49
60319;BME280;46163;52.306;5.634;2023-02-01T07:21:40;101606.47;;;18.20;48.42
60319;BME280;46163;52.306;5.634;2023-02-01T07:24:06;101609.31;;;18.25;48.13
60319;BME280;46163;52.306;5.634;2023-02-01T07:26:31;101612.59;;;18.27;48.44
60319;BME280;46163;52.306;5.634;2023-02-01T07:28:57;101614.22;;;18.28;48.42
60319;BME280;46163;52.306;5.634;2023-02-01T07:31:23;101613.75;;;18.31;48.26
60319;BME280;46163;52.306;5.634;2023-02-01T07:33:51;101606.47;;;18.31;47.75
60319;BME280;46163;52.306;5.634;2023-02-01T07:36:18;101611.63;;;18.33;47.44
60319;BME280;46163;52.306;5.634;2023-02-01T07:38:45;101608.84;;;18.28;47.40
60319;BME280;46163;52.306;5.634;2023-02-01T07:41:15;101610.94;;;18.26;47.65
60319;BME280;46163;52.306;5.634;2023-02-01T07:43:40;101617.41;;;18.25;47.66
60319;BME280;46163;52.306;5.634;2023-02-01T07:46:06;101612.22;;;18.23;47.63
60319;BME280;46163;52.306;5.634;2023-02-01T07:48:32;101616.09;;;18.27;47.28
60319;BME280;46163;52.306;5.634;2023-02-01T07:51:18;101609.41;;;18.18;47.52
60319;BME280;46163;52.306;5.634;2023-02-01T07:53:44;101619.28;;;18.24;47.38
60319;BME280;46163;52.306;5.634;2023-02-01T07:56:17;101603.91;;;18.25;47.13
60319;BME280;46163;52.306;5.634;2023-02-01T07:58:50;101623.94;;;18.29;47.11
60319;BME280;46163;52.306;5.634;2023-02-01T08:01:25;101618.09;;;18.32;47.27
60319;BME280;46163;52.306;5.634;2023-02-01T08:03:53;101634.25;;;18.32;47.11
60319;BME280;46163;52.306;5.634;2023-02-01T08:06:19;101631.09;;;18.35;47.31
60319;BME280;46163;52.306;5.634;2023-02-01T08:08:46;101616.56;;;18.36;47.17
60319;BME280;46163;52.306;5.634;2023-02-01T08:11:12;101622.53;;;18.38;47.07
60319;BME280;46163;52.306;5.634;2023-02-01T08:13:38;101619.38;;;18.41;46.87
60319;BME280;46163;52.306;5.634;2023-02-01T08:16:06;101622.69;;;18.43;47.03
60319;BME280;46163;52.306;5.634;2023-02-01T08:18:34;101620.56;;;18.45;46.68
60319;BME280;46163;52.306;5.634;2023-02-01T08:21:06;101622.44;;;18.45;46.97
60319;BME280;46163;52.306;5.634;2023-02-01T08:23:36;101628.16;;;18.48;46.66
60319;BME280;46163;52.306;5.634;2023-02-01T08:28:42;101606.63;;;18.48;46.90
60319;BME280;46163;52.306;5.634;2023-02-01T08:31:10;101623.50;;;18.55;46.57
60319;BME280;46163;52.306;5.634;2023-02-01T08:33:36;101622.44;;;18.56;46.79
60319;BME280;46163;52.306;5.634;2023-02-01T08:36:04;101609.53;;;18.58;47.36
60319;BME280;46163;52.306;5.634;2023-02-01T08:38:30;101608.72;;;18.58;48.01
60319;BME280;46163;52.306;5.634;2023-02-01T08:40:56;101609.09;;;18.61;47.58
60319;BME280;46163;52.306;5.634;2023-02-01T08:43:22;101608.50;;;18.59;47.24
60319;BME280;46163;52.306;5.634;2023-02-01T08:45:50;101600.88;;;18.56;47.34
60319;BME280;46163;52.306;5.634;2023-02-01T08:48:15;101602.06;;;18.60;47.30
60319;BME280;46163;52.306;5.634;2023-02-01T08:50:41;101592.91;;;18.61;47.45
60319;BME280;46163;52.306;5.634;2023-02-01T08:53:06;101600.31;;;18.66;47.57
60319;BME280;46163;52.306;5.634;2023-02-01T08:55:32;101591.53;;;18.71;47.50
60319;BME280;46163;52.306;5.634;2023-02-01T08:57:57;101591.03;;;18.74;47.36
60319;BME280;46163;52.306;5.634;2023-02-01T09:00:23;101582.72;;;18.75;47.20
60319;BME280;46163;52.306;5.634;2023-02-01T09:02:49;101582.50;;;18.77;46.99
60319;BME280;46163;52.306;5.634;2023-02-01T09:05:15;101593.63;;;18.80;47.06
60319;BME280;46163;52.306;5.634;2023-02-01T09:07:43;101585.88;;;18.84;46.81
60319;BME280;46163;52.306;5.634;2023-02-01T09:10:09;101592.44;;;18.88;46.88
60319;BME280;46163;52.306;5.634;2023-02-01T09:12:35;101596.53;;;18.90;46.86
60319;BME280;46163;52.306;5.634;2023-02-01T09:15:01;101582.47;;;18.88;46.70
60319;BME280;46163;52.306;5.634;2023-02-01T09:17:28;101600.16;;;18.96;46.90
60319;BME280;46163;52.306;5.634;2023-02-01T09:19:55;101594.28;;;18.99;46.91
60319;BME280;46163;52.306;5.634;2023-02-01T09:22:21;101581.16;;;19.03;46.78
60319;BME280;46163;52.306;5.634;2023-02-01T09:24:46;101581.16;;;19.03;46.73
60319;BME280;46163;52.306;5.634;2023-02-01T09:27:12;101579.84;;;19.05;46.90
60319;BME280;46163;52.306;5.634;2023-02-01T09:29:38;101581.50;;;19.06;46.83
60319;BME280;46163;52.306;5.634;2023-02-01T09:32:03;101596.59;;;19.07;46.84
60319;BME280;46163;52.306;5.634;2023-02-01T09:34:30;101585.81;;;19.07;46.68
60319;BME280;46163;52.306;5.634;2023-02-01T09:36:55;101589.34;;;19.08;46.95
60319;BME280;46163;52.306;5.634;2023-02-01T09:39:21;101600.94;;;19.08;46.73
60319;BME280;46163;52.306;5.634;2023-02-01T09:47:02;101582.06;;;19.08;46.72
60319;BME280;46163;52.306;5.634;2023-02-01T09:49:30;101575.84;;;19.08;46.82
60319;BME280;46163;52.306;5.634;2023-02-01T09:52:01;101586.41;;;19.09;46.77
60319;BME280;46163;52.306;5.634;2023-02-01T09:54:40;101577.47;;;19.09;46.67
60319;BME280;46163;52.306;5.634;2023-02-01T09:57:22;101583.69;;;19.09;46.74
60319;BME280;46163;52.306;5.634;2023-02-01T09:59:54;101575.84;;;19.08;46.87
60319;BME280;46163;52.306;5.634;2023-02-01T10:02:26;101580.41;;;19.07;46.61
60319;BME280;46163;52.306;5.634;2023-02-01T10:04:58;101571.25;;;19.08;46.69
60319;BME280;46163;52.306;5.634;2023-02-01T10:07:51;101573.16;;;19.08;46.82
60319;BME280;46163;52.306;5.634;2023-02-01T10:10:46;101568.56;;;19.08;46.77
60319;BME280;46163;52.306;5.634;2023-02-01T10:13:34;101572.09;;;19.09;46.72
60319;BME280;46163;52.306;5.634;2023-02-01T10:19:29;101569.38;;;19.09;46.75
60319;BME280;46163;52.306;5.634;2023-02-01T10:22:03;101567.75;;;19.08;46.55
60319;BME280;46163;52.306;5.634;2023-02-01T10:27:22;101589.00;;;19.04;46.97
60319;BME280;46163;52.306;5.634;2023-02-01T10:29:58;101580.91;;;19.04;46.94
60319;BME280;46163;52.306;5.634;2023-02-01T10:32:34;101570.13;;;19.04;46.54
60319;BME280;46163;52.306;5.634;2023-02-01T10:37:35;101580.09;;;19.04;46.68
60319;BME280;46163;52.306;5.634;2023-02-01T10:42:35;101572.22;;;19.02;46.78
60319;BME280;46163;52.306;5.634;2023-02-01T10:45:02;101576.34;;;19.05;46.85
60319;BME280;46163;52.306;5.634;2023-02-01T10:47:29;101584.66;;;19.03;46.71
60319;BME280;46163;52.306;5.634;2023-02-01T10:52:54;101569.75;;;19.01;46.68
60319;BME280;46163;52.306;5.634;2023-02-01T10:55:34;101558.63;;;18.97;46.48
60319;BME280;46163;52.306;5.634;2023-02-01T10:58:03;101569.19;;;18.99;46.59
60319;BME280;46163;52.306;5.634;2023-02-01T11:00:56;101563.47;;;18.95;46.82
60319;BME280;46163;52.306;5.634;2023-02-01T11:03:41;101560.75;;;18.95;46.74
60319;BME280;46163;52.306;5.634;2023-02-01T11:06:28;101549.16;;;18.95;47.01
60319;BME280;46163;52.306;5.634;2023-02-01T11:09:09;101540.00;;;18.96;46.83
60319;BME280;46163;52.306;5.634;2023-02-01T11:19:47;101542.47;;;18.97;46.65
60319;BME280;46163;52.306;5.634;2023-02-01T11:22:21;101552.19;;;18.98;46.77
60319;BME280;46163;52.306;5.634;2023-02-01T11:24:46;101568.94;;;19.00;46.77
60319;BME280;46163;52.306;5.634;2023-02-01T11:27:16;101541.97;;;19.00;46.64
60319;BME280;46163;52.306;5.634;2023-02-01T11:29:46;101526.59;;;19.01;46.48
60319;BME280;46163;52.306;5.634;2023-02-01T11:32:15;101539.38;;;19.05;46.56
60319;BME280;46163;52.306;5.634;2023-02-01T11:34:57;101529.41;;;19.06;46.66
60319;BME280;46163;52.306;5.634;2023-02-01T11:37:33;101526.72;;;19.06;46.65
60319;BME280;46163;52.306;5.634;2023-02-01T11:40:22;101542.66;;;19.07;46.58
60319;BME280;46163;52.306;5.634;2023-02-01T11:43:14;101533.75;;;19.07;46.62
60319;BME280;46163;52.306;5.634;2023-02-01T11:45:53;101534.00;;;19.05;46.37
60319;BME280;46163;52.306;5.634;2023-02-01T11:48:24;101519.44;;;19.06;46.49
60319;BME280;46163;52.306;5.634;2023-02-01T11:51:21;101531.03;;;19.07;46.49
60319;BME280;46163;52.306;5.634;2023-02-01T11:54:10;101531.88;;;19.07;46.55
60319;BME280;46163;52.306;5.634;2023-02-01T12:07:51;101524.16;;;18.99;46.85
60319;BME280;46163;52.306;5.634;2023-02-01T12:10:52;101523.34;;;18.99;46.97
60319;BME280;46163;52.306;5.634;2023-02-01T12:13:34;101524.16;;;18.99;46.92
60319;BME280;46163;52.306;5.634;2023-02-01T12:24:30;101516.78;;;18.95;46.95
60319;BME280;46163;52.306;5.634;2023-02-01T12:30:32;101531.09;;;18.83;47.61
60319;BME280;46163;52.306;5.634;2023-02-01T12:33:09;101515.41;;;18.80;47.80
60319;BME280;46163;52.306;5.634;2023-02-01T12:41:49;101519.41;;;18.78;48.01
60319;BME280;46163;52.306;5.634;2023-02-01T12:47:47;101506.63;;;18.73;47.77
60319;BME280;46163;52.306;5.634;2023-02-01T12:50:28;101523.63;;;18.74;47.85
60319;BME280;46163;52.306;5.634;2023-02-01T12:53:13;101518.47;;;18.72;48.05
60319;BME280;46163;52.306;5.634;2023-02-01T12:55:50;101525.19;;;18.70;48.04
60319;BME280;46163;52.306;5.634;2023-02-01T12:58:27;101523.31;;;18.70;47.90
60319;BME280;46163;52.306;5.634;2023-02-01T13:01:24;101527.63;;;18.71;47.96
60319;BME280;46163;52.306;5.634;2023-02-01T13:06:23;101530.91;;;18.73;48.09
60319;BME280;46163;52.306;5.634;2023-02-01T13:09:25;101520.69;;;18.75;47.90
60319;BME280;46163;52.306;5.634;2023-02-01T13:11:57;101509.69;;;18.77;47.83
60319;BME280;46163;52.306;5.634;2023-02-01T13:14:42;101513.41;;;18.76;47.92
60319;BME280;46163;52.306;5.634;2023-02-01T13:17:16;101526.69;;;18.77;47.98
60319;BME280;46163;52.306;5.634;2023-02-01T13:19:59;101518.34;;;18.79;47.70
60319;BME280;46163;52.306;5.634;2023-02-01T13:22:32;101515.91;;;18.77;47.73
60319;BME280;46163;52.306;5.634;2023-02-01T13:25:11;101514.03;;;18.78;47.57
60319;BME280;46163;52.306;5.634;2023-02-01T13:27:38;101533.72;;;18.78;47.53
60319;BME280;46163;52.306;5.634;2023-02-01T13:35:50;101525.72;;;18.83;47.43
60319;BME280;46163;52.306;5.634;2023-02-01T13:44:22;101526.31;;;18.74;47.64
60319;BME280;46163;52.306;5.634;2023-02-01T13:46:51;101530.09;;;18.73;47.84
60319;BME280;46163;52.306;5.634;2023-02-01T13:49:22;101539.22;;;18.72;47.78
60319;BME280;46163;52.306;5.634;2023-02-01T13:51:53;101542.63;;;18.67;48.04
60319;BME280;46163;52.306;5.634;2023-02-01T13:56:55;101534.09;;;18.70;48.06
60319;BME280;46163;52.306;5.634;2023-02-01T14:05:01;101537.94;;;18.74;48.46
60319;BME280;46163;52.306;5.634;2023-02-01T14:07:28;101536.88;;;18.75;48.67
60319;BME280;46163;52.306;5.634;2023-02-01T14:09:56;101543.91;;;18.76;48.77
60319;BME280;46163;52.306;5.634;2023-02-01T14:12:47;101553.88;;;18.76;48.88
60319;BME280;46163;52.306;5.634;2023-02-01T14:17:47;101547.66;;;18.75;48.89
60319;BME280;46163;52.306;5.634;2023-02-01T14:23:15;101540.75;;;18.79;48.50
60319;BME280;46163;52.306;5.634;2023-02-01T14:25:42;101543.19;;;18.81;48.74
60319;BME280;46163;52.306;5.634;2023-02-01T14:28:24;101542.13;;;18.82;48.69
60319;BME280;46163;52.306;5.634;2023-02-01T14:30:50;101537.31;;;18.84;48.75
60319;BME280;46163;52.306;5.634;2023-02-01T14:33:24;101534.63;;;18.84;48.65
60319;BME280;46163;52.306;5.634;2023-02-01T14:36:24;101538.94;;;18.85;48.72
60319;BME280;46163;52.306;5.634;2023-02-01T14:38:53;101541.44;;;18.86;48.85
60319;BME280;46163;52.306;5.634;2023-02-01T14:47:06;101552.56;;;18.90;48.87
60319;BME280;46163;52.306;5.634;2023-02-01T14:49:38;101540.94;;;18.89;48.70
60319;BME280;46163;52.306;5.634;2023-02-01T14:52:11;101554.75;;;18.93;48.62
60319;BME280;46163;52.306;5.634;2023-02-01T14:54:40;101565.09;;;18.96;48.67
60319;BME280;46163;52.306;5.634;2023-02-01T14:57:14;101550.31;;;18.99;48.37
60319;BME280;46163;52.306;5.634;2023-02-01T14:59:42;101551.13;;;18.99;48.32
60319;BME280;46163;52.306;5.634;2023-02-01T15:02:20;101551.13;;;18.99;48.26
60319;BME280;46163;52.306;5.634;2023-02-01T15:04:56;101556.53;;;18.99;48.09
60319;BME280;46163;52.306;5.634;2023-02-01T15:07:24;101565.66;;;18.98;48.38
60319;BME280;46163;52.306;5.634;2023-02-01T15:09:55;101577.53;;;18.97;48.16
60319;BME280;46163;52.306;5.634;2023-02-01T15:12:27;101579.41;;;18.97;48.27
60319;BME280;46163;52.306;5.634;2023-02-01T15:17:41;101610.94;;;18.96;48.18
60319;BME280;46163;52.306;5.634;2023-02-01T15:20:14;101609.31;;;18.95;48.23
60319;BME280;46163;52.306;5.634;2023-02-01T15:22:41;101607.44;;;18.96;48.21